sensor_id;sensor_type;location;lat;lon;timestamp;P1;durP1;ratioP1;P2;durP2;ratioP2
36585;SDS011;22591;48.314;11.562;2022-10-26T00:02:13;5.90;;;5.50;;
36585;SDS011;22591;48.314;11.562;2022-10-26T00:04:39;6.82;;;6.13;;
36585;SDS011;22591;48.314;11.562;2022-10-26T00:07:04;7.93;;;6.25;;
36585;SDS011;22591;48.314;11.562;2022-10-26T00:09:30;6.68;;;6.07;;
36585;SDS011;22591;48.314;11.562;2022-10-26T00:11:56;6.63;;;6.13;;
36585;SDS011;22591;48.314;11.562;2022-10-26T00:14:21;5.90;;;5.40;;
36585;SDS011;22591;48.314;11.562;2022-10-26T00:16:47;5.57;;;5.15;;
36585;SDS011;22591;48.314;11.562;2022-10-26T00:19:13;7.80;;;5.20;;
36585;SDS011;22591;48.314;11.562;2022-10-26T00:21:38;6.40;;;5.35;;
36585;SDS011;22591;48.314;11.562;2022-10-26T00:24:04;6.70;;;6.03;;
36585;SDS011;22591;48.314;11.562;2022-10-26T00:26:30;6.80;;;4.95;;
36585;SDS011;22591;48.314;11.562;2022-10-26T00:28:55;5.20;;;4.70;;
36585;SDS011;22591;48.314;11.562;2022-10-26T00:31:22;6.95;;;5.65;;
36585;SDS011;22591;48.314;11.562;2022-10-26T00:33:54;8.55;;;6.50;;
36585;SDS011;22591;48.314;11.562;2022-10-26T00:36:21;7.50;;;5.93;;
36585;SDS011;22591;48.314;11.562;2022-10-26T00:38:51;8.35;;;6.50;;
36585;SDS011;22591;48.314;11.562;2022-10-26T00:41:20;5.87;;;5.37;;
36585;SDS011;22591;48.314;11.562;2022-10-26T00:43:51;6.28;;;5.28;;
36585;SDS011;22591;48.314;11.562;2022-10-26T00:46:19;8.73;;;4.90;;
36585;SDS011;22591;48.314;11.562;2022-10-26T00:48:50;8.55;;;5.10;;
36585;SDS011;22591;48.314;11.562;2022-10-26T00:51:21;5.60;;;5.20;;
36585;SDS011;22591;48.314;11.562;2022-10-26T00:53:56;6.18;;;5.55;;
36585;SDS011;22591;48.314;11.562;2022-10-26T00:56:23;9.85;;;5.18;;
36585;SDS011;22591;48.314;11.562;2022-10-26T00:58:49;11.18;;;6.07;;
36585;SDS011;22591;48.314;11.562;2022-10-26T01:01:15;8.95;;;5.28;;
36585;SDS011;22591;48.314;11.562;2022-10-26T01:03:41;6.03;;;5.45;;
36585;SDS011;22591;48.314;11.562;2022-10-26T01:06:07;6.40;;;4.97;;
36585;SDS011;22591;48.314;11.562;2022-10-26T01:08:34;6.72;;;4.75;;
36585;SDS011;22591;48.314;11.562;2022-10-26T01:10:59;7.93;;;5.53;;
36585;SDS011;22591;48.314;11.562;2022-10-26T01:13:26;6.32;;;5.72;;
36585;SDS011;22591;48.314;11.562;2022-10-26T01:18:26;6.85;;;6.22;;
36585;SDS011;22591;48.314;11.562;2022-10-26T01:24:04;7.03;;;6.30;;
36585;SDS011;22591;48.314;11.562;2022-10-26T01:26:52;10.52;;;6.80;;
36585;SDS011;22591;48.314;11.562;2022-10-26T01:35:17;6.22;;;5.72;;
36585;SDS011;22591;48.314;11.562;2022-10-26T01:37:48;7.78;;;5.60;;
36585;SDS011;22591;48.314;11.562;2022-10-26T01:40:45;5.80;;;5.30;;
36585;SDS011;22591;48.314;11.562;2022-10-26T01:43:17;7.60;;;6.25;;
36585;SDS011;22591;48.314;11.562;2022-10-26T01:45:44;9.55;;;8.50;;
36585;SDS011;22591;48.314;11.562;2022-10-26T01:48:12;11.57;;;8.80;;
36585;SDS011;22591;48.314;11.562;2022-10-26T01:50:41;11.77;;;9.75;;
36585;SDS011;22591;48.314;11.562;2022-10-26T01:53:12;12.65;;;7.97;;
36585;SDS011;22591;48.314;11.562;2022-10-26T01:55:39;7.07;;;6.35;;
36585;SDS011;22591;48.314;11.562;2022-10-26T01:58:11;9.02;;;7.05;;
36585;SDS011;22591;48.314;11.562;2022-10-26T02:03:19;9.52;;;8.55;;
36585;SDS011;22591;48.314;11.562;2022-10-26T02:14:08;9.52;;;8.45;;
36585;SDS011;22591;48.314;11.562;2022-10-26T02:16:48;12.32;;;8.77;;
36585;SDS011;22591;48.314;11.562;2022-10-26T02:22:08;7.25;;;6.65;;
36585;SDS011;22591;48.314;11.562;2022-10-26T02:24:37;7.25;;;6.32;;
36585;SDS011;22591;48.314;11.562;2022-10-26T02:27:05;8.40;;;6.07;;
36585;SDS011;22591;48.314;11.562;2022-10-26T02:29:34;9.55;;;8.18;;
36585;SDS011;22591;48.314;11.562;2022-10-26T02:32:02;9.38;;;8.48;;
36585;SDS011;22591;48.314;11.562;2022-10-26T02:34:29;7.00;;;6.25;;
36585;SDS011;22591;48.314;11.562;2022-10-26T02:36:58;13.27;;;7.95;;
36585;SDS011;22591;48.314;11.562;2022-10-26T02:39:25;9.88;;;8.10;;
36585;SDS011;22591;48.314;11.562;2022-10-26T02:41:54;6.80;;;6.10;;
36585;SDS011;22591;48.314;11.562;2022-10-26T02:46:51;10.55;;;8.02;;
36585;SDS011;22591;48.314;11.562;2022-10-26T02:49:18;7.97;;;7.13;;
36585;SDS011;22591;48.314;11.562;2022-10-26T02:51:48;8.48;;;6.72;;
36585;SDS011;22591;48.314;11.562;2022-10-26T02:54:41;8.05;;;7.05;;
36585;SDS011;22591;48.314;11.562;2022-10-26T02:57:14;7.45;;;6.68;;
36585;SDS011;22591;48.314;11.562;2022-10-26T02:59:43;7.97;;;7.00;;
36585;SDS011;22591;48.314;11.562;2022-10-26T03:02:12;8.02;;;7.10;;
36585;SDS011;22591;48.314;11.562;2022-10-26T03:04:40;7.40;;;6.75;;
36585;SDS011;22591;48.314;11.562;2022-10-26T03:07:06;7.88;;;7.18;;
36585;SDS011;22591;48.314;11.562;2022-10-26T03:09:32;8.05;;;7.22;;
36585;SDS011;22591;48.314;11.562;2022-10-26T03:11:57;6.43;;;5.15;;
36585;SDS011;22591;48.314;11.562;2022-10-26T03:14:23;7.32;;;6.30;;
36585;SDS011;22591;48.314;11.562;2022-10-26T03:16:48;9.85;;;4.85;;
36585;SDS011;22591;48.314;11.562;2022-10-26T03:19:14;7.57;;;6.97;;
36585;SDS011;22591;48.314;11.562;2022-10-26T03:21:39;7.28;;;5.07;;
36585;SDS011;22591;48.314;11.562;2022-10-26T03:24:06;6.85;;;6.15;;
36585;SDS011;22591;48.314;11.562;2022-10-26T03:26:32;8.15;;;5.78;;
36585;SDS011;22591;48.314;11.562;2022-10-26T03:28:58;6.40;;;5.70;;
36585;SDS011;22591;48.314;11.562;2022-10-26T03:31:24;7.63;;;5.82;;
36585;SDS011;22591;48.314;11.562;2022-10-26T03:33:49;6.10;;;5.57;;
36585;SDS011;22591;48.314;11.562;2022-10-26T03:36:15;5.32;;;4.82;;
36585;SDS011;22591;48.314;11.562;2022-10-26T03:38:40;8.35;;;5.70;;
36585;SDS011;22591;48.314;11.562;2022-10-26T03:41:06;10.80;;;6.22;;
36585;SDS011;22591;48.314;11.562;2022-10-26T03:43:31;8.52;;;5.47;;
36585;SDS011;22591;48.314;11.562;2022-10-26T03:45:57;5.50;;;5.00;;
36585;SDS011;22591;48.314;11.562;2022-10-26T03:48:22;5.68;;;5.05;;
36585;SDS011;22591;48.314;11.562;2022-10-26T03:50:48;5.88;;;4.55;;
36585;SDS011;22591;48.314;11.562;2022-10-26T03:53:13;5.28;;;4.50;;
36585;SDS011;22591;48.314;11.562;2022-10-26T03:55:42;4.53;;;4.22;;
36585;SDS011;22591;48.314;11.562;2022-10-26T03:58:08;9.70;;;6.28;;
36585;SDS011;22591;48.314;11.562;2022-10-26T04:00:34;5.72;;;5.20;;
36585;SDS011;22591;48.314;11.562;2022-10-26T04:02:59;6.97;;;6.10;;
36585;SDS011;22591;48.314;11.562;2022-10-26T04:05:25;11.02;;;7.20;;
36585;SDS011;22591;48.314;11.562;2022-10-26T04:07:56;8.93;;;6.95;;
36585;SDS011;22591;48.314;11.562;2022-10-26T04:10:24;10.38;;;7.38;;
36585;SDS011;22591;48.314;11.562;2022-10-26T04:12:51;6.78;;;6.13;;
36585;SDS011;22591;48.314;11.562;2022-10-26T04:15:26;6.32;;;5.85;;
36585;SDS011;22591;48.314;11.562;2022-10-26T04:18:02;5.10;;;4.55;;
36585;SDS011;22591;48.314;11.562;2022-10-26T04:20:28;4.85;;;4.25;;
36585;SDS011;22591;48.314;11.562;2022-10-26T04:25:24;5.85;;;5.45;;
36585;SDS011;22591;48.314;11.562;2022-10-26T04:27:50;6.82;;;5.20;;
36585;SDS011;22591;48.314;11.562;2022-10-26T04:30:15;5.88;;;5.32;;
36585;SDS011;22591;48.314;11.562;2022-10-26T04:32:41;5.90;;;5.40;;
36585;SDS011;22591;48.314;11.562;2022-10-26T04:35:06;6.72;;;5.43;;
36585;SDS011;22591;48.314;11.562;2022-10-26T04:37:32;5.65;;;5.25;;
36585;SDS011;22591;48.314;11.562;2022-10-26T04:40:01;5.10;;;4.68;;
36585;SDS011;22591;48.314;11.562;2022-10-26T04:42:30;6.05;;;5.03;;
36585;SDS011;22591;48.314;11.562;2022-10-26T04:45:03;5.93;;;5.43;;
36585;SDS011;22591;48.314;11.562;2022-10-26T04:47:29;8.27;;;4.93;;
36585;SDS011;22591;48.314;11.562;2022-10-26T04:49:55;5.50;;;5.03;;
36585;SDS011;22591;48.314;11.562;2022-10-26T04:52:20;6.70;;;4.60;;
36585;SDS011;22591;48.314;11.562;2022-10-26T04:54:46;4.70;;;4.30;;
36585;SDS011;22591;48.314;11.562;2022-10-26T04:57:12;4.80;;;4.20;;
36585;SDS011;22591;48.314;11.562;2022-10-26T04:59:37;6.60;;;6.00;;
36585;SDS011;22591;48.314;11.562;2022-10-26T05:02:03;7.50;;;6.75;;
36585;SDS011;22591;48.314;11.562;2022-10-26T05:04:28;6.60;;;6.00;;
36585;SDS011;22591;48.314;11.562;2022-10-26T05:06:54;7.47;;;6.40;;
36585;SDS011;22591;48.314;11.562;2022-10-26T05:09:20;13.18;;;7.00;;
36585;SDS011;22591;48.314;11.562;2022-10-26T05:11:45;7.85;;;6.97;;
36585;SDS011;22591;48.314;11.562;2022-10-26T05:14:11;7.88;;;7.15;;
36585;SDS011;22591;48.314;11.562;2022-10-26T05:16:37;7.72;;;6.97;;
36585;SDS011;22591;48.314;11.562;2022-10-26T05:19:02;9.60;;;7.05;;
36585;SDS011;22591;48.314;11.562;2022-10-26T05:21:28;11.35;;;7.60;;
36585;SDS011;22591;48.314;11.562;2022-10-26T05:23:54;9.05;;;8.15;;
36585;SDS011;22591;48.314;11.562;2022-10-26T05:26:23;11.27;;;8.10;;
36585;SDS011;22591;48.314;11.562;2022-10-26T05:28:50;8.25;;;7.45;;
36585;SDS011;22591;48.314;11.562;2022-10-26T05:31:15;9.35;;;8.38;;
36585;SDS011;22591;48.314;11.562;2022-10-26T05:33:41;12.70;;;8.30;;
36585;SDS011;22591;48.314;11.562;2022-10-26T05:36:07;8.15;;;7.25;;
36585;SDS011;22591;48.314;11.562;2022-10-26T05:38:32;6.75;;;6.15;;
36585;SDS011;22591;48.314;11.562;2022-10-26T05:40:58;8.95;;;8.07;;
36585;SDS011;22591;48.314;11.562;2022-10-26T05:43:25;9.05;;;6.80;;
36585;SDS011;22591;48.314;11.562;2022-10-26T05:45:51;8.07;;;7.32;;
36585;SDS011;22591;48.314;11.562;2022-10-26T05:48:18;6.63;;;6.13;;
36585;SDS011;22591;48.314;11.562;2022-10-26T05:50:44;8.15;;;6.35;;
36585;SDS011;22591;48.314;11.562;2022-10-26T05:53:10;8.77;;;7.97;;
36585;SDS011;22591;48.314;11.562;2022-10-26T05:55:35;11.75;;;8.50;;
36585;SDS011;22591;48.314;11.562;2022-10-26T05:58:01;9.07;;;7.90;;
36585;SDS011;22591;48.314;11.562;2022-10-26T06:00:27;10.25;;;8.93;;
36585;SDS011;22591;48.314;11.562;2022-10-26T06:05:31;6.55;;;6.05;;
36585;SDS011;22591;48.314;11.562;2022-10-26T06:08:07;10.45;;;8.73;;
36585;SDS011;22591;48.314;11.562;2022-10-26T06:10:34;9.73;;;8.95;;
36585;SDS011;22591;48.314;11.562;2022-10-26T06:13:00;11.73;;;9.38;;
36585;SDS011;22591;48.314;11.562;2022-10-26T06:15:26;13.43;;;9.50;;
36585;SDS011;22591;48.314;11.562;2022-10-26T06:18:04;11.50;;;9.10;;
36585;SDS011;22591;48.314;11.562;2022-10-26T06:20:43;10.27;;;9.05;;
36585;SDS011;22591;48.314;11.562;2022-10-26T06:23:15;11.98;;;8.93;;
36585;SDS011;22591;48.314;11.562;2022-10-26T06:26:04;10.85;;;9.85;;
36585;SDS011;22591;48.314;11.562;2022-10-26T06:28:51;9.63;;;7.78;;
36585;SDS011;22591;48.314;11.562;2022-10-26T06:31:42;13.27;;;8.00;;
36585;SDS011;22591;48.314;11.562;2022-10-26T06:34:08;8.30;;;7.50;;
36585;SDS011;22591;48.314;11.562;2022-10-26T06:36:36;8.88;;;6.75;;
36585;SDS011;22591;48.314;11.562;2022-10-26T06:39:05;14.73;;;8.27;;
36585;SDS011;22591;48.314;11.562;2022-10-26T06:41:33;9.57;;;7.28;;
36585;SDS011;22591;48.314;11.562;2022-10-26T06:44:00;10.05;;;7.68;;
36585;SDS011;22591;48.314;11.562;2022-10-26T06:46:33;15.38;;;7.50;;
36585;SDS011;22591;48.314;11.562;2022-10-26T06:51:48;6.75;;;6.13;;
36585;SDS011;22591;48.314;11.562;2022-10-26T06:54:22;9.38;;;6.32;;
36585;SDS011;22591;48.314;11.562;2022-10-26T06:57:10;7.47;;;5.55;;
36585;SDS011;22591;48.314;11.562;2022-10-26T06:59:39;7.40;;;6.00;;
36585;SDS011;22591;48.314;11.562;2022-10-26T07:02:11;9.20;;;6.28;;
36585;SDS011;22591;48.314;11.562;2022-10-26T07:04:38;10.27;;;6.53;;
36585;SDS011;22591;48.314;11.562;2022-10-26T07:07:04;6.57;;;5.85;;
36585;SDS011;22591;48.314;11.562;2022-10-26T07:09:30;7.03;;;5.93;;
36585;SDS011;22591;48.314;11.562;2022-10-26T07:11:55;5.65;;;5.15;;
36585;SDS011;22591;48.314;11.562;2022-10-26T07:14:21;5.75;;;5.20;;
36585;SDS011;22591;48.314;11.562;2022-10-26T07:16:46;9.52;;;5.55;;
36585;SDS011;22591;48.314;11.562;2022-10-26T07:19:12;5.78;;;5.25;;
36585;SDS011;22591;48.314;11.562;2022-10-26T07:21:38;6.47;;;5.25;;
36585;SDS011;22591;48.314;11.562;2022-10-26T07:24:03;6.00;;;5.30;;
36585;SDS011;22591;48.314;11.562;2022-10-26T07:26:29;10.00;;;5.50;;
36585;SDS011;22591;48.314;11.562;2022-10-26T07:28:55;5.95;;;5.45;;
36585;SDS011;22591;48.314;11.562;2022-10-26T07:31:20;7.05;;;4.95;;
36585;SDS011;22591;48.314;11.562;2022-10-26T07:33:46;9.90;;;5.25;;
36585;SDS011;22591;48.314;11.562;2022-10-26T07:36:11;6.47;;;4.88;;
36585;SDS011;22591;48.314;11.562;2022-10-26T07:38:37;6.95;;;4.53;;
36585;SDS011;22591;48.314;11.562;2022-10-26T07:41:03;5.10;;;3.80;;
36585;SDS011;22591;48.314;11.562;2022-10-26T07:43:29;4.35;;;3.80;;
36585;SDS011;22591;48.314;11.562;2022-10-26T07:45:55;4.38;;;3.90;;
36585;SDS011;22591;48.314;11.562;2022-10-26T07:48:21;6.13;;;3.92;;
36585;SDS011;22591;48.314;11.562;2022-10-26T07:50:46;8.85;;;3.90;;
36585;SDS011;22591;48.314;11.562;2022-10-26T07:53:13;5.40;;;3.67;;
36585;SDS011;22591;48.314;11.562;2022-10-26T07:55:38;6.00;;;3.58;;
36585;SDS011;22591;48.314;11.562;2022-10-26T07:58:04;4.45;;;4.05;;
36585;SDS011;22591;48.314;11.562;2022-10-26T08:00:30;6.38;;;3.72;;
36585;SDS011;22591;48.314;11.562;2022-10-26T08:02:55;3.83;;;3.42;;
36585;SDS011;22591;48.314;11.562;2022-10-26T08:05:21;5.43;;;3.75;;
36585;SDS011;22591;48.314;11.562;2022-10-26T08:07:47;6.95;;;4.07;;
36585;SDS011;22591;48.314;11.562;2022-10-26T08:10:13;4.70;;;3.78;;
36585;SDS011;22591;48.314;11.562;2022-10-26T08:12:39;4.82;;;3.30;;
36585;SDS011;22591;48.314;11.562;2022-10-26T08:15:06;4.85;;;3.03;;
36585;SDS011;22591;48.314;11.562;2022-10-26T08:17:32;7.03;;;3.38;;
36585;SDS011;22591;48.314;11.562;2022-10-26T08:19:57;4.38;;;3.55;;
36585;SDS011;22591;48.314;11.562;2022-10-26T08:22:23;5.10;;;3.30;;
36585;SDS011;22591;48.314;11.562;2022-10-26T08:24:49;3.13;;;2.92;;
36585;SDS011;22591;48.314;11.562;2022-10-26T08:27:15;8.35;;;3.13;;
36585;SDS011;22591;48.314;11.562;2022-10-26T08:29:41;4.07;;;3.13;;
36585;SDS011;22591;48.314;11.562;2022-10-26T08:32:07;8.10;;;2.78;;
36585;SDS011;22591;48.314;11.562;2022-10-26T08:34:33;3.88;;;2.88;;
36585;SDS011;22591;48.314;11.562;2022-10-26T08:36:59;4.30;;;3.20;;
36585;SDS011;22591;48.314;11.562;2022-10-26T08:39:24;5.78;;;2.97;;
36585;SDS011;22591;48.314;11.562;2022-10-26T08:41:54;4.80;;;3.00;;
36585;SDS011;22591;48.314;11.562;2022-10-26T08:44:28;3.58;;;2.78;;
36585;SDS011;22591;48.314;11.562;2022-10-26T08:47:20;5.00;;;2.92;;
36585;SDS011;22591;48.314;11.562;2022-10-26T08:50:09;4.10;;;2.28;;
36585;SDS011;22591;48.314;11.562;2022-10-26T08:52:46;3.22;;;2.35;;
36585;SDS011;22591;48.314;11.562;2022-10-26T08:55:30;3.88;;;2.58;;
36585;SDS011;22591;48.314;11.562;2022-10-26T08:58:02;4.22;;;2.50;;
36585;SDS011;22591;48.314;11.562;2022-10-26T09:00:35;5.32;;;2.42;;
36585;SDS011;22591;48.314;11.562;2022-10-26T09:03:07;4.13;;;2.50;;
36585;SDS011;22591;48.314;11.562;2022-10-26T09:11:11;5.47;;;2.83;;
36585;SDS011;22591;48.314;11.562;2022-10-26T09:22:45;2.90;;;2.20;;
36585;SDS011;22591;48.314;11.562;2022-10-26T09:25:18;5.40;;;2.33;;
36585;SDS011;22591;48.314;11.562;2022-10-26T09:27:56;5.50;;;2.17;;
36585;SDS011;22591;48.314;11.562;2022-10-26T09:30:25;3.45;;;2.13;;
36585;SDS011;22591;48.314;11.562;2022-10-26T09:35:23;5.10;;;2.35;;
36585;SDS011;22591;48.314;11.562;2022-10-26T09:37:53;2.70;;;2.50;;
36585;SDS011;22591;48.314;11.562;2022-10-26T09:40:35;4.40;;;2.40;;
36585;SDS011;22591;48.314;11.562;2022-10-26T09:45:41;2.75;;;2.25;;
36585;SDS011;22591;48.314;11.562;2022-10-26T09:48:13;5.32;;;1.88;;
36585;SDS011;22591;48.314;11.562;2022-10-26T09:50:46;5.63;;;2.28;;
36585;SDS011;22591;48.314;11.562;2022-10-26T09:53:13;2.35;;;2.00;;
36585;SDS011;22591;48.314;11.562;2022-10-26T09:55:40;4.47;;;2.20;;
36585;SDS011;22591;48.314;11.562;2022-10-26T09:58:28;2.72;;;2.50;;
36585;SDS011;22591;48.314;11.562;2022-10-26T10:00:56;3.05;;;1.92;;
36585;SDS011;22591;48.314;11.562;2022-10-26T10:03:26;8.27;;;2.17;;
36585;SDS011;22591;48.314;11.562;2022-10-26T10:05:53;3.80;;;2.17;;
36585;SDS011;22591;48.314;11.562;2022-10-26T10:08:42;2.95;;;2.28;;
36585;SDS011;22591;48.314;11.562;2022-10-26T10:11:36;2.13;;;1.85;;
36585;SDS011;22591;48.314;11.562;2022-10-26T10:14:28;2.33;;;2.13;;
36585;SDS011;22591;48.314;11.562;2022-10-26T10:16:57;6.32;;;2.35;;
36585;SDS011;22591;48.314;11.562;2022-10-26T10:19:30;4.22;;;1.88;;
36585;SDS011;22591;48.314;11.562;2022-10-26T10:21:58;5.40;;;2.17;;
36585;SDS011;22591;48.314;11.562;2022-10-26T10:24:29;2.58;;;1.75;;
36585;SDS011;22591;48.314;11.562;2022-10-26T10:27:03;7.03;;;2.80;;
36585;SDS011;22591;48.314;11.562;2022-10-26T10:32:13;3.97;;;2.53;;
36585;SDS011;22591;48.314;11.562;2022-10-26T10:34:40;5.18;;;3.58;;
36585;SDS011;22591;48.314;11.562;2022-10-26T10:37:12;7.45;;;3.72;;
36585;SDS011;22591;48.314;11.562;2022-10-26T10:39:45;3.25;;;2.13;;
36585;SDS011;22591;48.314;11.562;2022-10-26T10:42:16;2.78;;;1.77;;
36585;SDS011;22591;48.314;11.562;2022-10-26T10:44:45;4.47;;;2.47;;
36585;SDS011;22591;48.314;11.562;2022-10-26T10:47:29;4.35;;;1.88;;
36585;SDS011;22591;48.314;11.562;2022-10-26T10:49:57;2.45;;;1.60;;
36585;SDS011;22591;48.314;11.562;2022-10-26T10:52:27;3.70;;;2.17;;
36585;SDS011;22591;48.314;11.562;2022-10-26T10:57:42;2.05;;;1.70;;
36585;SDS011;22591;48.314;11.562;2022-10-26T11:00:21;6.20;;;1.92;;
36585;SDS011;22591;48.314;11.562;2022-10-26T11:11:02;2.55;;;1.90;;
36585;SDS011;22591;48.314;11.562;2022-10-26T11:13:34;7.45;;;2.13;;
36585;SDS011;22591;48.314;11.562;2022-10-26T11:16:10;2.90;;;1.92;;
36585;SDS011;22591;48.314;11.562;2022-10-26T11:18:41;2.38;;;1.77;;
36585;SDS011;22591;48.314;11.562;2022-10-26T11:21:14;1.60;;;1.50;;
36585;SDS011;22591;48.314;11.562;2022-10-26T11:23:51;3.90;;;1.40;;
36585;SDS011;22591;48.314;11.562;2022-10-26T11:29:53;5.93;;;1.92;;
36585;SDS011;22591;48.314;11.562;2022-10-26T11:33:14;2.17;;;1.40;;
36585;SDS011;22591;48.314;11.562;2022-10-26T11:35:44;3.95;;;1.50;;
36585;SDS011;22591;48.314;11.562;2022-10-26T11:38:17;3.45;;;2.00;;
36585;SDS011;22591;48.314;11.562;2022-10-26T11:40:59;3.90;;;1.70;;
36585;SDS011;22591;48.314;11.562;2022-10-26T11:43:37;2.35;;;1.50;;
36585;SDS011;22591;48.314;11.562;2022-10-26T11:48:46;2.50;;;2.03;;
36585;SDS011;22591;48.314;11.562;2022-10-26T11:54:06;4.07;;;1.65;;
36585;SDS011;22591;48.314;11.562;2022-10-26T11:56:41;5.40;;;1.77;;
36585;SDS011;22591;48.314;11.562;2022-10-26T11:59:18;3.72;;;1.75;;
36585;SDS011;22591;48.314;11.562;2022-10-26T12:01:46;6.10;;;1.98;;
36585;SDS011;22591;48.314;11.562;2022-10-26T12:04:27;3.97;;;1.90;;
36585;SDS011;22591;48.314;11.562;2022-10-26T12:06:57;4.90;;;1.60;;
36585;SDS011;22591;48.314;11.562;2022-10-26T12:09:26;7.20;;;2.45;;
36585;SDS011;22591;48.314;11.562;2022-10-26T12:14:42;4.55;;;1.98;;
36585;SDS011;22591;48.314;11.562;2022-10-26T12:17:17;4.63;;;1.70;;
36585;SDS011;22591;48.314;11.562;2022-10-26T12:20:16;8.23;;;2.00;;
36585;SDS011;22591;48.314;11.562;2022-10-26T12:22:47;4.50;;;1.75;;
36585;SDS011;22591;48.314;11.562;2022-10-26T12:37:55;6.47;;;1.90;;
36585;SDS011;22591;48.314;11.562;2022-10-26T12:45:40;6.45;;;2.50;;
36585;SDS011;22591;48.314;11.562;2022-10-26T12:50:49;8.15;;;2.13;;
36585;SDS011;22591;48.314;11.562;2022-10-26T12:53:16;5.57;;;2.30;;
36585;SDS011;22591;48.314;11.562;2022-10-26T13:06:16;6.00;;;2.35;;
36585;SDS011;22591;48.314;11.562;2022-10-26T13:08:53;4.20;;;1.83;;
36585;SDS011;22591;48.314;11.562;2022-10-26T13:11:27;4.80;;;2.13;;
36585;SDS011;22591;48.314;11.562;2022-10-26T13:14:01;4.00;;;2.58;;
36585;SDS011;22591;48.314;11.562;2022-10-26T13:16:30;5.47;;;2.13;;
36585;SDS011;22591;48.314;11.562;2022-10-26T13:18:56;9.95;;;2.60;;
36585;SDS011;22591;48.314;11.562;2022-10-26T13:21:23;4.47;;;2.47;;
36585;SDS011;22591;48.314;11.562;2022-10-26T13:26:22;9.10;;;2.40;;
36585;SDS011;22591;48.314;11.562;2022-10-26T13:28:50;4.88;;;2.10;;
36585;SDS011;22591;48.314;11.562;2022-10-26T13:33:58;4.05;;;2.03;;
36585;SDS011;22591;48.314;11.562;2022-10-26T13:36:33;4.78;;;2.33;;
36585;SDS011;22591;48.314;11.562;2022-10-26T13:39:23;3.55;;;2.03;;
36585;SDS011;22591;48.314;11.562;2022-10-26T13:42:00;7.10;;;2.28;;
36585;SDS011;22591;48.314;11.562;2022-10-26T13:44:29;6.80;;;2.50;;
36585;SDS011;22591;48.314;11.562;2022-10-26T13:47:01;7.70;;;2.63;;
36585;SDS011;22591;48.314;11.562;2022-10-26T13:49:50;6.60;;;1.85;;
36585;SDS011;22591;48.314;11.562;2022-10-26T13:52:21;9.13;;;2.20;;
36585;SDS011;22591;48.314;11.562;2022-10-26T13:55:21;7.53;;;2.65;;
36585;SDS011;22591;48.314;11.562;2022-10-26T14:00:26;11.38;;;2.92;;
36585;SDS011;22591;48.314;11.562;2022-10-26T14:02:52;5.57;;;2.40;;
36585;SDS011;22591;48.314;11.562;2022-10-26T14:05:18;5.10;;;2.60;;
36585;SDS011;22591;48.314;11.562;2022-10-26T14:13:12;2.75;;;2.42;;
36585;SDS011;22591;48.314;11.562;2022-10-26T14:15:42;6.40;;;2.70;;
36585;SDS011;22591;48.314;11.562;2022-10-26T14:18:41;7.07;;;2.67;;
36585;SDS011;22591;48.314;11.562;2022-10-26T14:21:01;5.05;;;2.40;;
36585;SDS011;22591;48.314;11.562;2022-10-26T14:23:36;5.43;;;2.60;;
36585;SDS011;22591;48.314;11.562;2022-10-26T14:26:26;6.93;;;2.38;;
36585;SDS011;22591;48.314;11.562;2022-10-26T14:28:55;5.22;;;2.35;;
36585;SDS011;22591;48.314;11.562;2022-10-26T14:31:24;5.63;;;2.72;;
36585;SDS011;22591;48.314;11.562;2022-10-26T14:34:03;2.97;;;2.65;;
36585;SDS011;22591;48.314;11.562;2022-10-26T14:36:32;6.35;;;2.20;;
36585;SDS011;22591;48.314;11.562;2022-10-26T14:39:05;16.63;;;2.63;;
36585;SDS011;22591;48.314;11.562;2022-10-26T14:41:37;6.22;;;2.72;;
36585;SDS011;22591;48.314;11.562;2022-10-26T14:44:03;6.20;;;2.28;;
36585;SDS011;22591;48.314;11.562;2022-10-26T14:46:37;7.10;;;2.53;;
36585;SDS011;22591;48.314;11.562;2022-10-26T14:49:11;4.37;;;2.10;;
36585;SDS011;22591;48.314;11.562;2022-10-26T14:51:45;3.30;;;2.30;;
36585;SDS011;22591;48.314;11.562;2022-10-26T14:54:18;3.50;;;2.20;;
36585;SDS011;22591;48.314;11.562;2022-10-26T14:56:45;4.30;;;1.80;;
36585;SDS011;22591;48.314;11.562;2022-10-26T14:59:19;6.47;;;2.33;;
36585;SDS011;22591;48.314;11.562;2022-10-26T15:01:58;5.00;;;2.30;;
36585;SDS011;22591;48.314;11.562;2022-10-26T15:04:38;5.85;;;2.10;;
36585;SDS011;22591;48.314;11.562;2022-10-26T15:09:52;5.53;;;2.70;;
36585;SDS011;22591;48.314;11.562;2022-10-26T15:12:26;5.82;;;2.70;;
36585;SDS011;22591;48.314;11.562;2022-10-26T15:15:39;9.75;;;3.00;;
36585;SDS011;22591;48.314;11.562;2022-10-26T15:17:48;3.53;;;2.03;;
36585;SDS011;22591;48.314;11.562;2022-10-26T15:20:15;3.30;;;2.22;;
36585;SDS011;22591;48.314;11.562;2022-10-26T15:22:47;5.72;;;2.63;;
36585;SDS011;22591;48.314;11.562;2022-10-26T15:25:27;3.65;;;2.08;;
36585;SDS011;22591;48.314;11.562;2022-10-26T15:33:35;4.22;;;2.15;;
36585;SDS011;22591;48.314;11.562;2022-10-26T15:38:50;6.70;;;2.80;;
36585;SDS011;22591;48.314;11.562;2022-10-26T15:43:56;3.45;;;2.17;;
36585;SDS011;22591;48.314;11.562;2022-10-26T15:46:27;3.85;;;2.05;;
36585;SDS011;22591;48.314;11.562;2022-10-26T15:48:55;2.22;;;1.98;;
36585;SDS011;22591;48.314;11.562;2022-10-26T15:51:22;6.57;;;2.38;;
36585;SDS011;22591;48.314;11.562;2022-10-26T15:53:47;10.05;;;3.13;;
36585;SDS011;22591;48.314;11.562;2022-10-26T15:56:15;7.65;;;2.50;;
36585;SDS011;22591;48.314;11.562;2022-10-26T15:58:47;10.07;;;3.13;;
36585;SDS011;22591;48.314;11.562;2022-10-26T16:01:23;8.18;;;2.67;;
36585;SDS011;22591;48.314;11.562;2022-10-26T16:03:50;7.35;;;3.00;;
36585;SDS011;22591;48.314;11.562;2022-10-26T16:06:25;3.10;;;2.70;;
36585;SDS011;22591;48.314;11.562;2022-10-26T16:08:51;7.80;;;3.10;;
36585;SDS011;22591;48.314;11.562;2022-10-26T16:11:20;5.18;;;2.75;;
36585;SDS011;22591;48.314;11.562;2022-10-26T16:13:46;7.45;;;3.38;;
36585;SDS011;22591;48.314;11.562;2022-10-26T16:16:13;6.32;;;3.58;;
36585;SDS011;22591;48.314;11.562;2022-10-26T16:18:40;11.55;;;3.08;;
36585;SDS011;22591;48.314;11.562;2022-10-26T16:21:13;6.18;;;3.38;;
36585;SDS011;22591;48.314;11.562;2022-10-26T16:23:40;9.23;;;3.60;;
36585;SDS011;22591;48.314;11.562;2022-10-26T16:26:06;12.10;;;3.65;;
36585;SDS011;22591;48.314;11.562;2022-10-26T16:28:33;6.47;;;2.97;;
36585;SDS011;22591;48.314;11.562;2022-10-26T16:31:02;7.32;;;2.88;;
36585;SDS011;22591;48.314;11.562;2022-10-26T16:33:33;3.72;;;2.75;;
36585;SDS011;22591;48.314;11.562;2022-10-26T16:36:02;7.50;;;3.17;;
36585;SDS011;22591;48.314;11.562;2022-10-26T16:38:29;5.70;;;3.30;;
36585;SDS011;22591;48.314;11.562;2022-10-26T16:41:02;6.00;;;3.00;;
36585;SDS011;22591;48.314;11.562;2022-10-26T16:43:30;6.30;;;2.92;;
36585;SDS011;22591;48.314;11.562;2022-10-26T16:45:56;7.47;;;4.40;;
36585;SDS011;22591;48.314;11.562;2022-10-26T16:48:22;11.60;;;4.72;;
36585;SDS011;22591;48.314;11.562;2022-10-26T16:50:48;9.73;;;3.90;;
36585;SDS011;22591;48.314;11.562;2022-10-26T16:53:13;9.02;;;3.15;;
36585;SDS011;22591;48.314;11.562;2022-10-26T16:55:39;8.32;;;4.15;;
36585;SDS011;22591;48.314;11.562;2022-10-26T16:58:04;8.73;;;3.17;;
36585;SDS011;22591;48.314;11.562;2022-10-26T17:00:30;5.40;;;3.38;;
36585;SDS011;22591;48.314;11.562;2022-10-26T17:02:58;7.78;;;3.58;;
36585;SDS011;22591;48.314;11.562;2022-10-26T17:05:26;10.43;;;3.97;;
36585;SDS011;22591;48.314;11.562;2022-10-26T17:07:51;7.00;;;3.78;;
36585;SDS011;22591;48.314;11.562;2022-10-26T17:10:17;8.60;;;3.80;;